sensor_id;sensor_type;location;lat;lon;timestamp;temperature;humidity
4922;DHT22;16625;53.624;10.106;2023-10-13T00:01:09;12.10;99.90
4922;DHT22;16625;53.624;10.106;2023-10-13T00:03:39;12.40;99.90
4922;DHT22;16625;53.624;10.106;2023-10-13T00:06:07;12.30;99.90
4922;DHT22;16625;53.624;10.106;2023-10-13T00:08:34;11.60;99.90
4922;DHT22;16625;53.624;10.106;2023-10-13T00:11:05;12.60;99.90
4922;DHT22;16625;53.624;10.106;2023-10-13T00:13:35;12.40;99.90
4922;DHT22;16625;53.624;10.106;2023-10-13T00:16:08;12.30;99.90
4922;DHT22;16625;53.624;10.106;2023-10-13T00:18:44;12.90;99.90
4922;DHT22;16625;53.624;10.106;2023-10-13T00:21:11;12.80;99.90
4922;DHT22;16625;53.624;10.106;2023-10-13T00:23:46;11.80;99.90
4922;DHT22;16625;53.624;10.106;2023-10-13T00:26:19;12.80;99.90
4922;DHT22;16625;53.624;10.106;2023-10-13T00:28:50;12.40;99.90
4922;DHT22;16625;53.624;10.106;2023-10-13T00:31:24;12.30;99.90
4922;DHT22;16625;53.624;10.106;2023-10-13T00:33:59;12.30;99.90
4922;DHT22;16625;53.624;10.106;2023-10-13T00:36:35;11.70;99.90
4922;DHT22;16625;53.624;10.106;2023-10-13T00:39:02;12.00;99.90
4922;DHT22;16625;53.624;10.106;2023-10-13T00:41:32;11.70;99.90
4922;DHT22;16625;53.624;10.106;2023-10-13T00:44:16;12.10;99.90
4922;DHT22;16625;53.624;10.106;2023-10-13T00:46:43;12.20;99.90
4922;DHT22;16625;53.624;10.106;2023-10-13T00:49:12;11.80;99.90
4922;DHT22;16625;53.624;10.106;2023-10-13T00:51:41;12.50;99.90
4922;DHT22;16625;53.624;10.106;2023-10-13T00:54:13;12.20;99.90
4922;DHT22;16625;53.624;10.106;2023-10-13T00:56:42;13.00;99.90
4922;DHT22;16625;53.624;10.106;2023-10-13T00:59:23;12.40;99.90
4922;DHT22;16625;53.624;10.106;2023-10-13T01:01:51;12.50;99.90
4922;DHT22;16625;53.624;10.106;2023-10-13T01:04:23;12.90;99.90
4922;DHT22;16625;53.624;10.106;2023-10-13T01:06:53;12.80;99.90
4922;DHT22;16625;53.624;10.106;2023-10-13T01:09:19;13.00;99.90
4922;DHT22;16625;53.624;10.106;2023-10-13T01:11:50;11.90;99.90
4922;DHT22;16625;53.624;10.106;2023-10-13T01:14:17;12.60;99.90
4922;DHT22;16625;53.624;10.106;2023-10-13T01:16:46;13.00;99.90
4922;DHT22;16625;53.624;10.106;2023-10-13T01:19:13;12.60;99.90
4922;DHT22;16625;53.624;10.106;2023-10-13T01:21:45;12.00;99.90
4922;DHT22;16625;53.624;10.106;2023-10-13T01:24:14;12.00;99.90
4922;DHT22;16625;53.624;10.106;2023-10-13T01:26:43;12.00;99.90
4922;DHT22;16625;53.624;10.106;2023-10-13T01:29:09;13.00;99.90
4922;DHT22;16625;53.624;10.106;2023-10-13T01:31:40;12.20;99.90
4922;DHT22;16625;53.624;10.106;2023-10-13T01:34:12;12.30;99.90
4922;DHT22;16625;53.624;10.106;2023-10-13T01:36:41;13.40;99.90
4922;DHT22;16625;53.624;10.106;2023-10-13T01:39:09;12.20;99.90
4922;DHT22;16625;53.624;10.106;2023-10-13T01:41:38;12.10;99.90
4922;DHT22;16625;53.624;10.106;2023-10-13T01:44:05;12.50;99.90
4922;DHT22;16625;53.624;10.106;2023-10-13T01:46:32;12.40;99.90
4922;DHT22;16625;53.624;10.106;2023-10-13T01:49:02;13.40;99.90
4922;DHT22;16625;53.624;10.106;2023-10-13T01:51:28;12.20;99.90
4922;DHT22;16625;53.624;10.106;2023-10-13T01:53:55;12.20;99.90
4922;DHT22;16625;53.624;10.106;2023-10-13T01:56:22;13.30;99.90
4922;DHT22;16625;53.624;10.106;2023-10-13T01:58:52;12.20;99.90
4922;DHT22;16625;53.624;10.106;2023-10-13T02:01:19;12.20;99.90
4922;DHT22;16625;53.624;10.106;2023-10-13T02:03:53;12.30;99.90
4922;DHT22;16625;53.624;10.106;2023-10-13T02:06:27;12.30;99.90
4922;DHT22;16625;53.624;10.106;2023-10-13T02:08:59;12.30;99.90
4922;DHT22;16625;53.624;10.106;2023-10-13T02:11:37;13.60;99.90
4922;DHT22;16625;53.624;10.106;2023-10-13T02:14:06;12.30;99.90
4922;DHT22;16625;53.624;10.106;2023-10-13T02:16:32;12.30;99.90
4922;DHT22;16625;53.624;10.106;2023-10-13T02:19:02;13.00;99.90
4922;DHT22;16625;53.624;10.106;2023-10-13T02:21:30;12.40;99.90
4922;DHT22;16625;53.624;10.106;2023-10-13T02:23:58;12.60;99.90
4922;DHT22;16625;53.624;10.106;2023-10-13T02:26:30;13.70;99.90
4922;DHT22;16625;53.624;10.106;2023-10-13T02:28:58;13.00;99.90
4922;DHT22;16625;53.624;10.106;2023-10-13T02:31:28;12.50;99.90
4922;DHT22;16625;53.624;10.106;2023-10-13T02:33:55;13.10;99.90
4922;DHT22;16625;53.624;10.106;2023-10-13T02:36:21;12.90;99.90
4922;DHT22;16625;53.624;10.106;2023-10-13T02:39:02;13.30;99.90
4922;DHT22;16625;53.624;10.106;2023-10-13T02:41:33;13.20;99.90
4922;DHT22;16625;53.624;10.106;2023-10-13T02:44:03;13.30;99.90
4922;DHT22;16625;53.624;10.106;2023-10-13T02:46:33;12.50;99.90
4922;DHT22;16625;53.624;10.106;2023-10-13T02:49:05;12.50;99.90
4922;DHT22;16625;53.624;10.106;2023-10-13T02:51:36;13.40;99.90
4922;DHT22;16625;53.624;10.106;2023-10-13T02:54:04;13.80;99.90
4922;DHT22;16625;53.624;10.106;2023-10-13T02:56:37;12.60;99.90
4922;DHT22;16625;53.624;10.106;2023-10-13T02:59:13;12.60;99.90
4922;DHT22;16625;53.624;10.106;2023-10-13T03:01:41;13.30;99.90
4922;DHT22;16625;53.624;10.106;2023-10-13T03:04:08;12.60;99.90
4922;DHT22;16625;53.624;10.106;2023-10-13T03:06:35;12.60;99.90
4922;DHT22;16625;53.624;10.106;2023-10-13T03:09:08;13.10;99.90
4922;DHT22;16625;53.624;10.106;2023-10-13T03:11:40;13.20;99.90
4922;DHT22;16625;53.624;10.106;2023-10-13T03:14:13;13.50;99.90
4922;DHT22;16625;53.624;10.106;2023-10-13T03:16:51;12.70;99.90
4922;DHT22;16625;53.624;10.106;2023-10-13T03:19:19;13.40;99.90
4922;DHT22;16625;53.624;10.106;2023-10-13T03:21:45;13.60;99.90
4922;DHT22;16625;53.624;10.106;2023-10-13T03:24:20;13.50;99.90
4922;DHT22;16625;53.624;10.106;2023-10-13T03:26:48;12.80;99.90
4922;DHT22;16625;53.624;10.106;2023-10-13T03:29:18;12.80;99.90
4922;DHT22;16625;53.624;10.106;2023-10-13T03:31:47;13.60;99.90
4922;DHT22;16625;53.624;10.106;2023-10-13T03:34:30;13.80;99.90
4922;DHT22;16625;53.624;10.106;2023-10-13T03:36:58;13.00;99.90
4922;DHT22;16625;53.624;10.106;2023-10-13T03:39:25;13.90;99.90
4922;DHT22;16625;53.624;10.106;2023-10-13T03:41:56;14.00;99.90
4922;DHT22;16625;53.624;10.106;2023-10-13T03:44:25;13.80;99.90
4922;DHT22;16625;53.624;10.106;2023-10-13T03:46:56;14.10;99.90
4922;DHT22;16625;53.624;10.106;2023-10-13T03:49:26;13.10;99.90
4922;DHT22;16625;53.624;10.106;2023-10-13T03:51:57;13.50;99.90
4922;DHT22;16625;53.624;10.106;2023-10-13T03:54:24;13.90;99.90
4922;DHT22;16625;53.624;10.106;2023-10-13T03:56:55;13.10;99.90
4922;DHT22;16625;53.624;10.106;2023-10-13T03:59:22;12.50;99.90
4922;DHT22;16625;53.624;10.106;2023-10-13T04:01:50;14.20;99.90
4922;DHT22;16625;53.624;10.106;2023-10-13T04:04:25;13.00;99.90
4922;DHT22;16625;53.624;10.106;2023-10-13T04:07:13;13.80;99.90
4922;DHT22;16625;53.624;10.106;2023-10-13T04:10:00;13.50;99.90
4922;DHT22;16625;53.624;10.106;2023-10-13T04:13:01;13.10;99.90
4922;DHT22;16625;53.624;10.106;2023-10-13T04:15:51;13.10;99.90
4922;DHT22;16625;53.624;10.106;2023-10-13T04:19:00;14.20;99.90
4922;DHT22;16625;53.624;10.106;2023-10-13T04:21:35;13.20;99.90
4922;DHT22;16625;53.624;10.106;2023-10-13T04:24:22;13.20;99.90
4922;DHT22;16625;53.624;10.106;2023-10-13T04:27:25;14.40;99.90
4922;DHT22;16625;53.624;10.106;2023-10-13T04:30:19;14.20;99.90
4922;DHT22;16625;53.624;10.106;2023-10-13T04:32:52;13.20;99.90
4922;DHT22;16625;53.624;10.106;2023-10-13T04:36:01;13.20;99.90
4922;DHT22;16625;53.624;10.106;2023-10-13T04:38:39;13.90;99.90
4922;DHT22;16625;53.624;10.106;2023-10-13T04:41:24;13.50;99.90
4922;DHT22;16625;53.624;10.106;2023-10-13T04:43:50;13.80;99.90
4922;DHT22;16625;53.624;10.106;2023-10-13T04:46:30;14.00;99.90
4922;DHT22;16625;53.624;10.106;2023-10-13T04:49:20;14.00;99.90
4922;DHT22;16625;53.624;10.106;2023-10-13T04:51:54;14.50;99.90
4922;DHT22;16625;53.624;10.106;2023-10-13T04:54:25;13.90;99.90
4922;DHT22;16625;53.624;10.106;2023-10-13T04:57:12;13.40;99.90
4922;DHT22;16625;53.624;10.106;2023-10-13T04:59:50;13.60;99.90
4922;DHT22;16625;53.624;10.106;2023-10-13T05:02:34;14.40;99.90
4922;DHT22;16625;53.624;10.106;2023-10-13T05:05:43;13.40;99.90
4922;DHT22;16625;53.624;10.106;2023-10-13T05:08:32;14.00;99.90
4922;DHT22;16625;53.624;10.106;2023-10-13T05:11:16;14.40;99.90
4922;DHT22;16625;53.624;10.106;2023-10-13T05:14:02;13.50;99.90
4922;DHT22;16625;53.624;10.106;2023-10-13T05:16:46;13.60;99.90
4922;DHT22;16625;53.624;10.106;2023-10-13T05:19:30;14.50;99.90
4922;DHT22;16625;53.624;10.106;2023-10-13T05:22:15;13.90;99.90
4922;DHT22;16625;53.624;10.106;2023-10-13T05:24:59;13.80;99.90
4922;DHT22;16625;53.624;10.106;2023-10-13T05:27:43;14.00;99.90
4922;DHT22;16625;53.624;10.106;2023-10-13T05:30:29;14.20;99.90
4922;DHT22;16625;53.624;10.106;2023-10-13T05:33:14;13.70;99.90
4922;DHT22;16625;53.624;10.106;2023-10-13T05:35:58;13.70;99.90
4922;DHT22;16625;53.624;10.106;2023-10-13T05:38:42;14.00;99.90
4922;DHT22;16625;53.624;10.106;2023-10-13T05:41:37;13.80;99.90
4922;DHT22;16625;53.624;10.106;2023-10-13T05:44:22;13.80;99.90
4922;DHT22;16625;53.624;10.106;2023-10-13T05:47:20;15.00;99.90
4922;DHT22;16625;53.624;10.106;2023-10-13T05:50:13;15.10;99.90
4922;DHT22;16625;53.624;10.106;2023-10-13T05:52:55;14.50;99.90
4922;DHT22;16625;53.624;10.106;2023-10-13T05:55:39;14.30;99.90
4922;DHT22;16625;53.624;10.106;2023-10-13T05:58:24;15.10;99.90
4922;DHT22;16625;53.624;10.106;2023-10-13T06:01:12;14.60;99.90
4922;DHT22;16625;53.624;10.106;2023-10-13T06:03:58;15.10;99.90
4922;DHT22;16625;53.624;10.106;2023-10-13T06:06:42;15.30;99.90
4922;DHT22;16625;53.624;10.106;2023-10-13T06:09:27;14.70;99.90
4922;DHT22;16625;53.624;10.106;2023-10-13T06:12:11;14.40;99.90
4922;DHT22;16625;53.624;10.106;2023-10-13T06:14:55;14.80;99.90
4922;DHT22;16625;53.624;10.106;2023-10-13T06:17:40;14.20;99.90
4922;DHT22;16625;53.624;10.106;2023-10-13T06:23:56;14.30;99.90
4922;DHT22;16625;53.624;10.106;2023-10-13T06:26:41;14.30;99.90
4922;DHT22;16625;53.624;10.106;2023-10-13T06:29:26;14.30;99.90
4922;DHT22;16625;53.624;10.106;2023-10-13T06:31:54;14.50;99.90
4922;DHT22;16625;53.624;10.106;2023-10-13T06:34:39;15.00;99.90
4922;DHT22;16625;53.624;10.106;2023-10-13T06:37:19;14.40;99.90
4922;DHT22;16625;53.624;10.106;2023-10-13T06:39:53;15.70;99.90
4922;DHT22;16625;53.624;10.106;2023-10-13T06:42:22;15.30;99.90
4922;DHT22;16625;53.624;10.106;2023-10-13T06:44:53;15.00;99.90
4922;DHT22;16625;53.624;10.106;2023-10-13T06:47:20;15.10;99.90
4922;DHT22;16625;53.624;10.106;2023-10-13T06:49:48;14.70;99.90
4922;DHT22;16625;53.624;10.106;2023-10-13T06:52:16;14.70;99.90
4922;DHT22;16625;53.624;10.106;2023-10-13T06:54:43;14.70;99.90
4922;DHT22;16625;53.624;10.106;2023-10-13T06:57:13;14.80;99.90
4922;DHT22;16625;53.624;10.106;2023-10-13T06:59:46;15.20;99.90
4922;DHT22;16625;53.624;10.106;2023-10-13T07:02:13;14.90;99.90
4922;DHT22;16625;53.624;10.106;2023-10-13T07:04:46;15.00;99.90
4922;DHT22;16625;53.624;10.106;2023-10-13T07:07:14;15.10;99.90
4922;DHT22;16625;53.624;10.106;2023-10-13T07:09:41;15.00;99.90
4922;DHT22;16625;53.624;10.106;2023-10-13T07:12:17;15.30;99.90
4922;DHT22;16625;53.624;10.106;2023-10-13T07:14:48;15.20;99.90
4922;DHT22;16625;53.624;10.106;2023-10-13T07:17:19;15.90;99.90
4922;DHT22;16625;53.624;10.106;2023-10-13T07:19:52;15.20;99.90
4922;DHT22;16625;53.624;10.106;2023-10-13T07:22:31;15.30;99.90
4922;DHT22;16625;53.624;10.106;2023-10-13T07:25:06;15.20;99.90
4922;DHT22;16625;53.624;10.106;2023-10-13T07:27:34;15.20;99.90
4922;DHT22;16625;53.624;10.106;2023-10-13T07:30:02;15.30;99.90
4922;DHT22;16625;53.624;10.106;2023-10-13T07:32:39;15.20;99.90
4922;DHT22;16625;53.624;10.106;2023-10-13T07:35:11;15.20;99.90
4922;DHT22;16625;53.624;10.106;2023-10-13T07:37:39;15.30;99.90
4922;DHT22;16625;53.624;10.106;2023-10-13T07:40:08;15.30;99.90
4922;DHT22;16625;53.624;10.106;2023-10-13T07:42:56;15.30;99.90
4922;DHT22;16625;53.624;10.106;2023-10-13T07:45:26;15.30;99.90
4922;DHT22;16625;53.624;10.106;2023-10-13T07:48:02;15.70;99.90
4922;DHT22;16625;53.624;10.106;2023-10-13T07:50:33;15.40;99.90
4922;DHT22;16625;53.624;10.106;2023-10-13T07:53:01;15.80;99.90
4922;DHT22;16625;53.624;10.106;2023-10-13T07:55:40;15.40;99.90
4922;DHT22;16625;53.624;10.106;2023-10-13T07:58:08;16.10;99.90
4922;DHT22;16625;53.624;10.106;2023-10-13T08:00:35;15.50;99.90
4922;DHT22;16625;53.624;10.106;2023-10-13T08:03:19;15.50;99.90
4922;DHT22;16625;53.624;10.106;2023-10-13T08:05:59;15.50;99.90
4922;DHT22;16625;53.624;10.106;2023-10-13T08:08:31;15.40;99.90
4922;DHT22;16625;53.624;10.106;2023-10-13T08:11:10;15.50;99.90
4922;DHT22;16625;53.624;10.106;2023-10-13T08:13:51;15.60;99.90
4922;DHT22;16625;53.624;10.106;2023-10-13T08:16:21;15.50;99.90
4922;DHT22;16625;53.624;10.106;2023-10-13T08:18:49;15.60;99.90
4922;DHT22;16625;53.624;10.106;2023-10-13T08:21:17;15.50;99.90
4922;DHT22;16625;53.624;10.106;2023-10-13T08:23:48;16.10;99.90
4922;DHT22;16625;53.624;10.106;2023-10-13T08:26:32;16.30;99.90
4922;DHT22;16625;53.624;10.106;2023-10-13T08:29:14;15.70;99.90
4922;DHT22;16625;53.624;10.106;2023-10-13T08:31:58;16.30;99.90
4922;DHT22;16625;53.624;10.106;2023-10-13T08:34:50;15.50;99.90
4922;DHT22;16625;53.624;10.106;2023-10-13T08:37:35;15.60;99.90
4922;DHT22;16625;53.624;10.106;2023-10-13T08:40:13;15.50;99.90
4922;DHT22;16625;53.624;10.106;2023-10-13T08:43:05;15.60;99.90
4922;DHT22;16625;53.624;10.106;2023-10-13T08:45:39;15.70;99.90
4922;DHT22;16625;53.624;10.106;2023-10-13T08:48:32;15.50;99.90
4922;DHT22;16625;53.624;10.106;2023-10-13T08:51:00;15.50;99.90
4922;DHT22;16625;53.624;10.106;2023-10-13T08:54:00;15.50;99.90
4922;DHT22;16625;53.624;10.106;2023-10-13T08:56:34;15.50;99.90
4922;DHT22;16625;53.624;10.106;2023-10-13T08:59:12;15.60;99.90
4922;DHT22;16625;53.624;10.106;2023-10-13T09:01:49;16.00;99.90
4922;DHT22;16625;53.624;10.106;2023-10-13T09:04:25;15.70;99.90
4922;DHT22;16625;53.624;10.106;2023-10-13T09:06:54;16.10;99.90
4922;DHT22;16625;53.624;10.106;2023-10-13T09:09:34;16.50;99.90
4922;DHT22;16625;53.624;10.106;2023-10-13T09:12:26;15.60;99.90
4922;DHT22;16625;53.624;10.106;2023-10-13T09:15:29;15.70;99.90
4922;DHT22;16625;53.624;10.106;2023-10-13T09:18:25;15.70;99.90
4922;DHT22;16625;53.624;10.106;2023-10-13T09:21:15;16.20;99.90
4922;DHT22;16625;53.624;10.106;2023-10-13T09:23:59;15.70;99.90
4922;DHT22;16625;53.624;10.106;2023-10-13T09:26:44;15.70;99.90
4922;DHT22;16625;53.624;10.106;2023-10-13T09:29:16;15.80;99.90
4922;DHT22;16625;53.624;10.106;2023-10-13T09:31:46;16.40;99.90
4922;DHT22;16625;53.624;10.106;2023-10-13T09:34:21;16.00;99.90
4922;DHT22;16625;53.624;10.106;2023-10-13T09:36:57;16.00;99.90
4922;DHT22;16625;53.624;10.106;2023-10-13T09:39:25;17.10;99.90
4922;DHT22;16625;53.624;10.106;2023-10-13T09:41:56;16.10;99.90
4922;DHT22;16625;53.624;10.106;2023-10-13T09:44:23;16.20;99.90
4922;DHT22;16625;53.624;10.106;2023-10-13T09:46:49;16.30;99.90
4922;DHT22;16625;53.624;10.106;2023-10-13T09:49:23;16.40;99.90
4922;DHT22;16625;53.624;10.106;2023-10-13T09:52:11;16.70;99.90
4922;DHT22;16625;53.624;10.106;2023-10-13T09:54:51;16.50;99.90
4922;DHT22;16625;53.624;10.106;2023-10-13T09:57:28;16.40;99.90
4922;DHT22;16625;53.624;10.106;2023-10-13T10:00:06;16.50;99.90
4922;DHT22;16625;53.624;10.106;2023-10-13T10:02:53;16.90;99.90
4922;DHT22;16625;53.624;10.106;2023-10-13T10:05:25;16.50;99.90
4922;DHT22;16625;53.624;10.106;2023-10-13T10:07:55;17.10;99.90
4922;DHT22;16625;53.624;10.106;2023-10-13T10:10:23;17.30;99.90
4922;DHT22;16625;53.624;10.106;2023-10-13T10:13:07;16.60;99.90
4922;DHT22;16625;53.624;10.106;2023-10-13T10:15:44;16.80;99.90
4922;DHT22;16625;53.624;10.106;2023-10-13T10:18:20;16.40;99.90
4922;DHT22;16625;53.624;10.106;2023-10-13T10:20:49;16.40;99.90
4922;DHT22;16625;53.624;10.106;2023-10-13T10:23:24;16.40;99.90
4922;DHT22;16625;53.624;10.106;2023-10-13T10:25:53;16.40;99.90
4922;DHT22;16625;53.624;10.106;2023-10-13T10:28:36;16.40;99.90
4922;DHT22;16625;53.624;10.106;2023-10-13T10:31:07;16.50;99.90
4922;DHT22;16625;53.624;10.106;2023-10-13T10:33:38;16.40;99.90
4922;DHT22;16625;53.624;10.106;2023-10-13T10:36:09;17.10;99.90
4922;DHT22;16625;53.624;10.106;2023-10-13T10:38:51;16.70;99.90
4922;DHT22;16625;53.624;10.106;2023-10-13T10:41:27;16.80;99.90
4922;DHT22;16625;53.624;10.106;2023-10-13T10:44:10;16.80;99.90
4922;DHT22;16625;53.624;10.106;2023-10-13T10:46:41;16.80;99.90
4922;DHT22;16625;53.624;10.106;2023-10-13T10:49:18;16.90;99.90
4922;DHT22;16625;53.624;10.106;2023-10-13T10:51:57;16.90;99.90
4922;DHT22;16625;53.624;10.106;2023-10-13T10:54:27;17.10;99.90
4922;DHT22;16625;53.624;10.106;2023-10-13T10:56:57;18.10;99.90
4922;DHT22;16625;53.624;10.106;2023-10-13T10:59:37;17.10;99.90
4922;DHT22;16625;53.624;10.106;2023-10-13T11:02:04;17.50;99.90
4922;DHT22;16625;53.624;10.106;2023-10-13T11:04:32;17.80;99.90
4922;DHT22;16625;53.624;10.106;2023-10-13T11:07:07;17.30;99.90
4922;DHT22;16625;53.624;10.106;2023-10-13T11:09:35;17.60;99.90
4922;DHT22;16625;53.624;10.106;2023-10-13T11:12:14;17.60;99.90
4922;DHT22;16625;53.624;10.106;2023-10-13T11:14:41;17.60;99.90
4922;DHT22;16625;53.624;10.106;2023-10-13T11:17:08;17.80;99.90
4922;DHT22;16625;53.624;10.106;2023-10-13T11:19:44;18.00;99.90
4922;DHT22;16625;53.624;10.106;2023-10-13T11:22:13;18.20;99.90
4922;DHT22;16625;53.624;10.106;2023-10-13T11:24:54;17.90;99.90
4922;DHT22;16625;53.624;10.106;2023-10-13T11:27:28;18.20;99.90
4922;DHT22;16625;53.624;10.106;2023-10-13T11:30:10;18.10;99.90
4922;DHT22;16625;53.624;10.106;2023-10-13T11:32:40;18.10;99.90
4922;DHT22;16625;53.624;10.106;2023-10-13T11:35:08;18.10;99.90
4922;DHT22;16625;53.624;10.106;2023-10-13T11:37:47;18.30;99.90
4922;DHT22;16625;53.624;10.106;2023-10-13T11:40:22;18.40;99.90
4922;DHT22;16625;53.624;10.106;2023-10-13T11:43:03;18.50;99.90
4922;DHT22;16625;53.624;10.106;2023-10-13T11:45:39;18.60;99.90
4922;DHT22;16625;53.624;10.106;2023-10-13T11:48:19;18.60;99.90
4922;DHT22;16625;53.624;10.106;2023-10-13T11:51:00;18.80;99.90
4922;DHT22;16625;53.624;10.106;2023-10-13T11:53:32;18.80;99.90
4922;DHT22;16625;53.624;10.106;2023-10-13T11:56:00;18.70;99.90
4922;DHT22;16625;53.624;10.106;2023-10-13T11:58:28;19.20;99.90
4922;DHT22;16625;53.624;10.106;2023-10-13T12:00:55;18.70;99.90
4922;DHT22;16625;53.624;10.106;2023-10-13T12:03:47;18.90;99.90
4922;DHT22;16625;53.624;10.106;2023-10-13T12:06:33;19.00;99.90
4922;DHT22;16625;53.624;10.106;2023-10-13T12:09:13;19.20;99.90
4922;DHT22;16625;53.624;10.106;2023-10-13T12:12:05;19.20;99.90
4922;DHT22;16625;53.624;10.106;2023-10-13T12:14:34;19.70;99.90
4922;DHT22;16625;53.624;10.106;2023-10-13T12:17:03;19.40;99.90
4922;DHT22;16625;53.624;10.106;2023-10-13T12:19:36;19.70;99.90
4922;DHT22;16625;53.624;10.106;2023-10-13T12:22:04;19.60;99.90
4922;DHT22;16625;53.624;10.106;2023-10-13T12:24:36;19.60;99.90
4922;DHT22;16625;53.624;10.106;2023-10-13T12:27:08;19.60;99.90
4922;DHT22;16625;53.624;10.106;2023-10-13T12:29:46;19.50;99.90
4922;DHT22;16625;53.624;10.106;2023-10-13T12:32:14;19.70;99.90
4922;DHT22;16625;53.624;10.106;2023-10-13T12:34:47;19.40;99.90
4922;DHT22;16625;53.624;10.106;2023-10-13T12:37:27;19.30;99.90
4922;DHT22;16625;53.624;10.106;2023-10-13T12:40:17;19.40;99.90
4922;DHT22;16625;53.624;10.106;2023-10-13T12:43:02;19.50;99.90
4922;DHT22;16625;53.624;10.106;2023-10-13T12:45:48;19.60;99.90
4922;DHT22;16625;53.624;10.106;2023-10-13T12:48:34;19.70;99.90
4922;DHT22;16625;53.624;10.106;2023-10-13T12:51:19;19.70;99.90
4922;DHT22;16625;53.624;10.106;2023-10-13T12:54:06;19.80;99.90
4922;DHT22;16625;53.624;10.106;2023-10-13T12:56:42;19.80;99.90
4922;DHT22;16625;53.624;10.106;2023-10-13T12:59:09;19.80;99.90
4922;DHT22;16625;53.624;10.106;2023-10-13T13:01:39;19.80;99.90
4922;DHT22;16625;53.624;10.106;2023-10-13T13:04:08;19.80;99.90
4922;DHT22;16625;53.624;10.106;2023-10-13T13:06:44;19.90;99.90
4922;DHT22;16625;53.624;10.106;2023-10-13T13:09:11;20.00;99.90
4922;DHT22;16625;53.624;10.106;2023-10-13T13:11:38;20.00;99.90
4922;DHT22;16625;53.624;10.106;2023-10-13T13:14:08;20.10;99.90
4922;DHT22;16625;53.624;10.106;2023-10-13T13:16:36;20.10;99.90
4922;DHT22;16625;53.624;10.106;2023-10-13T13:19:04;20.10;99.90
4922;DHT22;16625;53.624;10.106;2023-10-13T13:21:37;20.10;99.90
4922;DHT22;16625;53.624;10.106;2023-10-13T13:24:05;20.00;99.90
4922;DHT22;16625;53.624;10.106;2023-10-13T13:26:38;20.00;99.90
4922;DHT22;16625;53.624;10.106;2023-10-13T13:29:08;19.90;99.90
4922;DHT22;16625;53.624;10.106;2023-10-13T13:31:36;19.90;99.90
4922;DHT22;16625;53.624;10.106;2023-10-13T13:34:07;19.90;99.90
4922;DHT22;16625;53.624;10.106;2023-10-13T13:36:36;19.90;99.90
4922;DHT22;16625;53.624;10.106;2023-10-13T13:39:03;20.10;99.90
4922;DHT22;16625;53.624;10.106;2023-10-13T13:41:31;20.30;99.90
4922;DHT22;16625;53.624;10.106;2023-10-13T13:43:58;20.40;99.90
4922;DHT22;16625;53.624;10.106;2023-10-13T13:46:40;20.50;99.90
4922;DHT22;16625;53.624;10.106;2023-10-13T13:49:09;20.50;99.90
4922;DHT22;16625;53.624;10.106;2023-10-13T13:51:44;20.50;99.90
4922;DHT22;16625;53.624;10.106;2023-10-13T13:54:19;20.40;99.90
4922;DHT22;16625;53.624;10.106;2023-10-13T13:56:47;20.40;99.90
4922;DHT22;16625;53.624;10.106;2023-10-13T13:59:17;20.30;99.90
4922;DHT22;16625;53.624;10.106;2023-10-13T14:01:48;20.20;99.90
4922;DHT22;16625;53.624;10.106;2023-10-13T14:04:18;20.10;99.90
4922;DHT22;16625;53.624;10.106;2023-10-13T14:06:45;20.10;99.90
4922;DHT22;16625;53.624;10.106;2023-10-13T14:09:12;20.00;99.90
4922;DHT22;16625;53.624;10.106;2023-10-13T14:11:58;20.00;99.90
4922;DHT22;16625;53.624;10.106;2023-10-13T14:14:42;20.00;99.90
4922;DHT22;16625;53.624;10.106;2023-10-13T14:17:16;20.00;99.90
4922;DHT22;16625;53.624;10.106;2023-10-13T14:19:43;20.00;99.90
4922;DHT22;16625;53.624;10.106;2023-10-13T14:22:11;19.90;99.90
4922;DHT22;16625;53.624;10.106;2023-10-13T14:24:38;19.80;99.90
4922;DHT22;16625;53.624;10.106;2023-10-13T14:27:13;19.80;99.90
4922;DHT22;16625;53.624;10.106;2023-10-13T14:29:43;19.80;99.90
4922;DHT22;16625;53.624;10.106;2023-10-13T14:32:10;19.80;99.90
4922;DHT22;16625;53.624;10.106;2023-10-13T14:34:41;19.80;99.90
4922;DHT22;16625;53.624;10.106;2023-10-13T14:37:08;19.80;99.90
4922;DHT22;16625;53.624;10.106;2023-10-13T14:39:38;19.80;99.90
4922;DHT22;16625;53.624;10.106;2023-10-13T14:42:05;19.60;99.90
4922;DHT22;16625;53.624;10.106;2023-10-13T14:44:33;19.70;99.90
4922;DHT22;16625;53.624;10.106;2023-10-13T14:47:00;19.70;99.90
4922;DHT22;16625;53.624;10.106;2023-10-13T14:49:27;19.70;99.90
4922;DHT22;16625;53.624;10.106;2023-10-13T14:51:55;19.70;99.90
4922;DHT22;16625;53.624;10.106;2023-10-13T14:54:25;19.80;99.90
4922;DHT22;16625;53.624;10.106;2023-10-13T14:57:00;19.70;99.90
4922;DHT22;16625;53.624;10.106;2023-10-13T14:59:28;19.80;99.90
4922;DHT22;16625;53.624;10.106;2023-10-13T15:01:59;19.70;99.90
4922;DHT22;16625;53.624;10.106;2023-10-13T15:04:28;19.70;99.90
4922;DHT22;16625;53.624;10.106;2023-10-13T15:07:00;19.70;99.90
4922;DHT22;16625;53.624;10.106;2023-10-13T15:09:28;19.50;99.90
4922;DHT22;16625;53.624;10.106;2023-10-13T15:11:55;19.50;99.90
4922;DHT22;16625;53.624;10.106;2023-10-13T15:14:23;19.50;99.90
4922;DHT22;16625;53.624;10.106;2023-10-13T15:16:51;19.50;99.90
4922;DHT22;16625;53.624;10.106;2023-10-13T15:19:19;19.50;99.90
4922;DHT22;16625;53.624;10.106;2023-10-13T15:21:47;19.50;99.90
4922;DHT22;16625;53.624;10.106;2023-10-13T15:24:17;19.60;99.90
4922;DHT22;16625;53.624;10.106;2023-10-13T15:26:47;19.60;99.90
4922;DHT22;16625;53.624;10.106;2023-10-13T15:29:15;18.90;99.90
4922;DHT22;16625;53.624;10.106;2023-10-13T15:31:45;19.60;99.90
4922;DHT22;16625;53.624;10.106;2023-10-13T15:34:32;19.70;99.90
4922;DHT22;16625;53.624;10.106;2023-10-13T15:37:00;19.80;99.90
4922;DHT22;16625;53.624;10.106;2023-10-13T15:39:36;19.00;99.90
4922;DHT22;16625;53.624;10.106;2023-10-13T15:42:05;19.80;99.90
4922;DHT22;16625;53.624;10.106;2023-10-13T15:44:35;19.70;99.90
4922;DHT22;16625;53.624;10.106;2023-10-13T15:47:02;19.70;99.90
4922;DHT22;16625;53.624;10.106;2023-10-13T15:49:30;19.70;99.90
4922;DHT22;16625;53.624;10.106;2023-10-13T15:51:59;19.70;99.90
4922;DHT22;16625;53.624;10.106;2023-10-13T15:54:26;19.80;99.90
4922;DHT22;16625;53.624;10.106;2023-10-13T15:56:54;19.80;99.90
4922;DHT22;16625;53.624;10.106;2023-10-13T15:59:21;19.90;99.90
4922;DHT22;16625;53.624;10.106;2023-10-13T16:01:49;19.90;99.90
4922;DHT22;16625;53.624;10.106;2023-10-13T16:04:20;19.90;99.90
4922;DHT22;16625;53.624;10.106;2023-10-13T16:06:47;19.80;99.90
4922;DHT22;16625;53.624;10.106;2023-10-13T16:09:16;19.80;99.90
4922;DHT22;16625;53.624;10.106;2023-10-13T16:11:49;19.80;99.90
4922;DHT22;16625;53.624;10.106;2023-10-13T16:14:18;19.90;99.90
4922;DHT22;16625;53.624;10.106;2023-10-13T16:16:46;19.90;99.90
4922;DHT22;16625;53.624;10.106;2023-10-13T16:19:14;19.80;99.90